First Coast — WCR9075 — position and weather

sailwx.info

Track history (hours):
 
Tides and Currents Weather Stations Pressure Air Temp Water Temp Dewpoint Dewpoint Depression Visibility Wind Speed Wind Dir Waves Ship Positions

First Coast

More information available from US FCC via Universal Licensing System and Coast Guard Vessel Documentation Center.

Last reported at 2014-Sep-03 08:33 UTC. Time now 2014-Sep-21 22:12 UTC.
Position N 39°10' W 076°24'.
Warning: this ship's position is 18 days out of date.

; draft 3.5 m.

Type: Tug. MMSI: 367024280.

Date/timePositionNaut miles runAvg speedWind from/ knotsBaromVisibWave heightAir tempDewpointWater temp
2014-Sep-03 08:33N 39°10' W 076°24'7 7.3
2014-Sep-03 07:33N 39°13' W 076°33'2 1.6
2014-Sep-03 06:33N 39°13' W 076°35'0 0.0
2014-Sep-03 05:33N 39°13' W 076°35'0 0.0
2014-Sep-03 04:33N 39°13' W 076°35'0 0.0
2014-Sep-03 03:33N 39°13' W 076°35'0 0.0
2014-Sep-03 02:33N 39°13' W 076°35'0 0.0
2014-Sep-03 01:33N 39°13' W 076°35'0 0.0
2014-Sep-03 00:27N 39°13' W 076°35'0 0.0
2014-Sep-02 23:33N 39°13' W 076°35'0 0.0
2014-Sep-02 22:33N 39°13' W 076°35'0 0.0
2014-Sep-02 21:32N 39°13' W 076°35'0 0.0
2014-Sep-02 20:33N 39°13' W 076°35'0 0.0
2014-Sep-02 19:33N 39°13' W 076°35'0 0.4
2014-Sep-02 18:33N 39°13' W 076°34'6 6.2
2014-Sep-02 17:33N 39°11' W 076°27'9 7.1
2014-Sep-02 16:14N 39°13' W 076°15'66 1.3
2014-Aug-31 12:23N 39°54' W 075°09'  
2014-Aug-27 08:18N 39°54' W 075°09'0 0.0
2014-Aug-27 07:33N 39°54' W 075°09'0 0.0
2014-Aug-27 06:33N 39°54' W 075°09'0 0.0
2014-Aug-27 05:19N 39°54' W 075°09'0 0.0
2014-Aug-27 04:27N 39°54' W 075°09'0 0.0
2014-Aug-27 03:33N 39°54' W 075°09'0 0.0
2014-Aug-27 01:23N 39°54' W 075°09'  
Track history (hours):
 
Tides and Currents Weather Stations Pressure Air Temp Water Temp Dewpoint Dewpoint Depression Visibility Wind Speed Wind Dir Waves Ship Positions

First Coast

More information available from US FCC via Universal Licensing System and Coast Guard Vessel Documentation Center.

Last reported at 2014-Sep-03 08:33 UTC. Time now 2014-Sep-21 22:12 UTC.
Position N 39°10' W 076°24'.
Warning: this ship's position is 18 days out of date.

; draft 3.5 m.

Type: Tug. MMSI: 367024280.

Date/timePositionNaut miles runAvg speedWind from/ knotsBaromVisibWave heightAir tempDewpointWater temp
2014-Sep-03 08:33N 39°10' W 076°24'7 7.3
2014-Sep-03 07:33N 39°13' W 076°33'2 1.6
2014-Sep-03 06:33N 39°13' W 076°35'0 0.0
2014-Sep-03 05:33N 39°13' W 076°35'0 0.0
2014-Sep-03 04:33N 39°13' W 076°35'0 0.0
2014-Sep-03 03:33N 39°13' W 076°35'0 0.0
2014-Sep-03 02:33N 39°13' W 076°35'0 0.0
2014-Sep-03 01:33N 39°13' W 076°35'0 0.0
2014-Sep-03 00:27N 39°13' W 076°35'0 0.0
2014-Sep-02 23:33N 39°13' W 076°35'0 0.0
2014-Sep-02 22:33N 39°13' W 076°35'0 0.0
2014-Sep-02 21:32N 39°13' W 076°35'0 0.0
2014-Sep-02 20:33N 39°13' W 076°35'0 0.0
2014-Sep-02 19:33N 39°13' W 076°35'0 0.4
2014-Sep-02 18:33N 39°13' W 076°34'6 6.2
2014-Sep-02 17:33N 39°11' W 076°27'9 7.1
2014-Sep-02 16:14N 39°13' W 076°15'66 1.3
2014-Aug-31 12:23N 39°54' W 075°09'  
2014-Aug-27 08:18N 39°54' W 075°09'0 0.0
2014-Aug-27 07:33N 39°54' W 075°09'0 0.0
2014-Aug-27 06:33N 39°54' W 075°09'0 0.0
2014-Aug-27 05:19N 39°54' W 075°09'0 0.0
2014-Aug-27 04:27N 39°54' W 075°09'0 0.0
2014-Aug-27 03:33N 39°54' W 075°09'0 0.0
2014-Aug-27 01:23N 39°54' W 075°09'  

Dump ship's entire track history